Kinokawa Maru — 3FXG2 — position and weather

sailwx.info

Track history (hours):
 
Tides and Currents Weather Stations Pressure Air Temp Water Temp Dewpoint Dewpoint Depression Visibility Wind Speed Wind Dir Waves Ship Positions

Kinokawa Maru

Last reported at 2018-May-19 21:12 UTC. Time now 2018-May-20 15:38 UTC.
Position N 30°59' E 122°31'.

Length 293 m; draft 10.3 m.

Type: Cargo ship. MMSI: 351787000.

Date/timePositionNaut miles runAvg speedWind from/ knotsBaromVisibWave heightAir tempDewpointWater temp
2018-May-19 21:12N 30°59' E 122°31'512.2
2018-May-19 20:49N 31°01' E 122°26'412.3
2018-May-19 20:30N 31°01' E 122°21'611.8
2018-May-19 19:59N 31°03' E 122°14'510.5
2018-May-19 19:30N 31°03' E 122°09'5 9.3
2018-May-19 19:00N 31°04' E 122°03'3 6.5
2018-May-19 18:30N 31°05' E 121°60'4 8.0
2018-May-19 18:00N 31°07' E 121°56'510.3
2018-May-19 17:30N 31°11' E 121°51'510.5
2018-May-19 17:00N 31°14' E 121°47'510.5
2018-May-19 16:29N 31°19' E 121°43'610.5
2018-May-19 15:54N 31°22' E 121°37'511.2
2018-May-19 15:26N 31°25' E 121°32'3 6.9
2018-May-19 15:00N 31°27' E 121°29'5 9.5
2018-May-19 14:30N 31°30' E 121°25'611.3
2018-May-19 14:00N 31°33' E 121°19'612.6
2018-May-19 13:30N 31°38' E 121°15'612.2
2018-May-19 13:00N 31°42' E 121°09'712.9
2018-May-19 12:28N 31°46' E 121°03'2810.5
2018-May-19 09:49N 32°00' E 120°35'412.4
2018-May-19 09:30N 32°02' E 120°30'811.3
2018-May-19 08:47N 31°59' E 120°21'0 0.0
2018-May-17 23:26N 31°59' E 120°21'510.7
2018-May-17 23:00N 32°02' E 120°26'4 8.7
2018-May-17 22:30N 32°02' E 120°31'26 9.9
2018-May-17 19:49N 31°47' E 120°57'3 9.9
2018-May-17 19:30N 31°47' E 121°00'713.1
2018-May-17 19:00N 31°43' E 121°07'714.5
2018-May-17 18:30N 31°39' E 121°14'4 9.0
2018-May-17 18:00N 31°36' E 121°18'0 0.3
2018-May-17 17:27N 31°36' E 121°18'0 0.0
2018-May-17 16:57N 31°36' E 121°18'0 0.6
2018-May-17 16:30N 31°36' E 121°18'0 0.5
2018-May-17 16:00N 31°36' E 121°18'0 0.1
2018-May-17 15:30N 31°36' E 121°18'0 0.0
2018-May-17 14:51N 31°36' E 121°18'0 0.1
2018-May-17 14:30N 31°36' E 121°18'0 0.1
2018-May-17 14:00N 31°36' E 121°18'0 0.1
2018-May-17 13:27N 31°36' E 121°18'0 0.0
2018-May-17 13:00N 31°36' E 121°18'0 0.0
2018-May-17 12:27N 31°36' E 121°18'0 0.0
2018-May-17 12:00N 31°36' E 121°18'0 0.1
2018-May-17 11:30N 31°36' E 121°18'0 0.1
2018-May-17 11:00N 31°36' E 121°18'0 0.0
2018-May-17 10:27N 31°36' E 121°18'0 0.0
2018-May-17 09:51N 31°36' E 121°18'0 0.2
2018-May-17 09:27N 31°36' E 121°18'0 1.0
2018-May-17 09:00N 31°36' E 121°18'1 1.4
2018-May-17 08:30N 31°35' E 121°19'1 2.8
2018-May-17 08:00N 31°34' E 121°19'4 6.7
2018-May-17 07:25N 31°31' E 121°23'511.5
2018-May-17 07:00N 31°28' E 121°27'5 9.4
2018-May-17 06:30N 31°25' E 121°31'5 9.4
2018-May-17 06:00N 31°23' E 121°36'5 9.2
2018-May-17 05:29N 31°20' E 121°41'1110.3
2018-May-17 04:24N 31°16' E 121°53'410.5
2018-May-17 04:00N 31°15' E 121°58'5 9.8
2018-May-17 03:28N 31°14' E 122°04'13 9.9
2018-May-17 02:10N 31°07' E 122°16'2 9.7
2018-May-17 01:57N 31°06' E 122°19'512.0
2018-May-17 01:30N 31°06' E 122°25'610.9
2018-May-17 01:00N 31°09' E 122°30'2 3.3
2018-May-17 00:25N 31°10' E 122°33'1 3.5
2018-May-17 00:00N 31°09' E 122°34'1 1.4
2018-May-16 23:23N 31°09' E 122°35'0 0.2
2018-May-16 20:43N 31°10' E 122°35'0 0.0
2018-May-16 20:25N 31°10' E 122°35'0 0.0
2018-May-16 19:52N 31°10' E 122°35'0 0.1
2018-May-16 19:28N 31°10' E 122°35'0 0.1
2018-May-16 18:58N 31°10' E 122°35'0 0.1
2018-May-16 18:28N 31°10' E 122°35'0 0.1
2018-May-16 17:16N 31°10' E 122°35'0 0.1
2018-May-16 14:31N 31°10' E 122°35'0 0.0
2018-May-16 14:19N 31°10' E 122°35'0 0.1
2018-May-16 13:49N 31°10' E 122°35'0 0.1
2018-May-16 12:07N 31°10' E 122°35'0 0.2
2018-May-16 11:55N 31°10' E 122°35'0 0.3
2018-May-16 11:25N 31°10' E 122°35'0 0.1
2018-May-16 10:55N 31°10' E 122°35'0 0.1
2018-May-16 10:07N 31°10' E 122°35'0 0.1
2018-May-16 09:55N 31°10' E 122°35'0 0.0
2018-May-16 09:25N 31°10' E 122°35'0 0.1
2018-May-16 08:58N 31°10' E 122°35'0 0.0
2018-May-16 08:28N 31°10' E 122°35'0 0.1
2018-May-16 07:55N 31°10' E 122°35'0 0.0
2018-May-16 07:19N 31°10' E 122°35'0 0.0
2018-May-16 06:55N 31°10' E 122°35'0 0.1
2018-May-16 06:28N 31°10' E 122°35'0 0.1
2018-May-16 05:58N 31°10' E 122°35'0 0.1
2018-May-16 05:25N 31°10' E 122°35'0 0.1
2018-May-16 04:58N 31°10' E 122°35'0 0.0
2018-May-15 11:16N 31°10' E 122°35'0 0.0
2018-May-14 18:46N 31°10' E 122°35'0 0.1
2018-May-14 18:22N 31°10' E 122°35'0 0.1
2018-May-14 17:55N 31°10' E 122°35'0 0.0
2018-May-14 00:34N 31°10' E 122°35'0 0.1
2018-May-13 22:58N 31°10' E 122°35'0 0.2
2018-May-13 21:49N 31°10' E 122°35'0 0.3
2018-May-13 21:25N 31°10' E 122°35'0 0.1
2018-May-13 20:28N 31°10' E 122°35'0 0.0
2018-May-13 19:49N 31°10' E 122°35'0 0.1
2018-May-13 19:28N 31°10' E 122°35'0 0.1
2018-May-13 18:58N 31°10' E 122°35'0 0.0
2018-May-13 17:58N 31°10' E 122°35'0 0.1
2018-May-13 17:25N 31°10' E 122°35'0 0.0
2018-May-13 16:58N 31°10' E 122°35'0 0.1
2018-May-13 16:22N 31°10' E 122°35'0 0.1
2018-May-13 15:52N 31°10' E 122°35'0 0.1
2018-May-13 15:25N 31°10' E 122°35'0 0.1
2018-May-13 14:55N 31°10' E 122°35'0 0.0
2018-May-13 14:28N 31°10' E 122°35'0 0.1
2018-May-13 13:25N 31°10' E 122°35'0 0.1
2018-May-13 12:58N 31°10' E 122°35'0 0.1
2018-May-13 12:25N 31°10' E 122°35'0 0.0
2018-May-13 11:55N 31°10' E 122°35'0 0.1
2018-May-13 11:10N 31°10' E 122°35'0 0.1
2018-May-13 10:58N 31°10' E 122°35'0 0.1
2018-May-13 10:13N 31°10' E 122°35'0 0.1
2018-May-13 09:58N 31°10' E 122°35'0 0.1
2018-May-13 09:28N 31°10' E 122°35'0 0.2
2018-May-13 08:46N 31°10' E 122°35'0 0.1
2018-May-13 05:07N 31°10' E 122°35'0 0.0
2018-May-13 04:58N 31°10' E 122°35'0 0.1
2018-May-13 04:28N 31°10' E 122°35'0 0.1
2018-May-13 03:58N 31°10' E 122°35'0 0.1
2018-May-13 03:22N 31°10' E 122°35'0 0.1
2018-May-13 01:16N 31°10' E 122°35'0 0.1
2018-May-12 22:43N 31°10' E 122°35'0 0.1
2018-May-12 22:22N 31°10' E 122°35'0 0.1
2018-May-12 16:19N 31°10' E 122°35'0 0.1
2018-May-12 15:13N 31°10' E 122°35'0 0.0
2018-May-11 08:22N 31°10' E 122°35'0 0.1
2018-May-11 05:07N 31°10' E 122°35'0 0.1
2018-May-11 02:13N 31°10' E 122°35'  
Track history (hours):
 
Tides and Currents Weather Stations Pressure Air Temp Water Temp Dewpoint Dewpoint Depression Visibility Wind Speed Wind Dir Waves Ship Positions

Kinokawa Maru

Last reported at 2018-May-19 21:12 UTC. Time now 2018-May-20 15:38 UTC.
Position N 30°59' E 122°31'.

Length 293 m; draft 10.3 m.

Type: Cargo ship. MMSI: 351787000.

Date/timePositionNaut miles runAvg speedWind from/ knotsBaromVisibWave heightAir tempDewpointWater temp
2018-May-19 21:12N 30°59' E 122°31'512.2
2018-May-19 20:49N 31°01' E 122°26'412.3
2018-May-19 20:30N 31°01' E 122°21'611.8
2018-May-19 19:59N 31°03' E 122°14'510.5
2018-May-19 19:30N 31°03' E 122°09'5 9.3
2018-May-19 19:00N 31°04' E 122°03'3 6.5
2018-May-19 18:30N 31°05' E 121°60'4 8.0
2018-May-19 18:00N 31°07' E 121°56'510.3
2018-May-19 17:30N 31°11' E 121°51'510.5
2018-May-19 17:00N 31°14' E 121°47'510.5
2018-May-19 16:29N 31°19' E 121°43'610.5
2018-May-19 15:54N 31°22' E 121°37'511.2
2018-May-19 15:26N 31°25' E 121°32'3 6.9
2018-May-19 15:00N 31°27' E 121°29'5 9.5
2018-May-19 14:30N 31°30' E 121°25'611.3
2018-May-19 14:00N 31°33' E 121°19'612.6
2018-May-19 13:30N 31°38' E 121°15'612.2
2018-May-19 13:00N 31°42' E 121°09'712.9
2018-May-19 12:28N 31°46' E 121°03'2810.5
2018-May-19 09:49N 32°00' E 120°35'412.4
2018-May-19 09:30N 32°02' E 120°30'811.3
2018-May-19 08:47N 31°59' E 120°21'0 0.0
2018-May-17 23:26N 31°59' E 120°21'510.7
2018-May-17 23:00N 32°02' E 120°26'4 8.7
2018-May-17 22:30N 32°02' E 120°31'26 9.9
2018-May-17 19:49N 31°47' E 120°57'3 9.9
2018-May-17 19:30N 31°47' E 121°00'713.1
2018-May-17 19:00N 31°43' E 121°07'714.5
2018-May-17 18:30N 31°39' E 121°14'4 9.0
2018-May-17 18:00N 31°36' E 121°18'0 0.3
2018-May-17 17:27N 31°36' E 121°18'0 0.0
2018-May-17 16:57N 31°36' E 121°18'0 0.6
2018-May-17 16:30N 31°36' E 121°18'0 0.5
2018-May-17 16:00N 31°36' E 121°18'0 0.1
2018-May-17 15:30N 31°36' E 121°18'0 0.0
2018-May-17 14:51N 31°36' E 121°18'0 0.1
2018-May-17 14:30N 31°36' E 121°18'0 0.1
2018-May-17 14:00N 31°36' E 121°18'0 0.1
2018-May-17 13:27N 31°36' E 121°18'0 0.0
2018-May-17 13:00N 31°36' E 121°18'0 0.0
2018-May-17 12:27N 31°36' E 121°18'0 0.0
2018-May-17 12:00N 31°36' E 121°18'0 0.1
2018-May-17 11:30N 31°36' E 121°18'0 0.1
2018-May-17 11:00N 31°36' E 121°18'0 0.0
2018-May-17 10:27N 31°36' E 121°18'0 0.0
2018-May-17 09:51N 31°36' E 121°18'0 0.2
2018-May-17 09:27N 31°36' E 121°18'0 1.0
2018-May-17 09:00N 31°36' E 121°18'1 1.4
2018-May-17 08:30N 31°35' E 121°19'1 2.8
2018-May-17 08:00N 31°34' E 121°19'4 6.7
2018-May-17 07:25N 31°31' E 121°23'511.5
2018-May-17 07:00N 31°28' E 121°27'5 9.4
2018-May-17 06:30N 31°25' E 121°31'5 9.4
2018-May-17 06:00N 31°23' E 121°36'5 9.2
2018-May-17 05:29N 31°20' E 121°41'1110.3
2018-May-17 04:24N 31°16' E 121°53'410.5
2018-May-17 04:00N 31°15' E 121°58'5 9.8
2018-May-17 03:28N 31°14' E 122°04'13 9.9
2018-May-17 02:10N 31°07' E 122°16'2 9.7
2018-May-17 01:57N 31°06' E 122°19'512.0
2018-May-17 01:30N 31°06' E 122°25'610.9
2018-May-17 01:00N 31°09' E 122°30'2 3.3
2018-May-17 00:25N 31°10' E 122°33'1 3.5
2018-May-17 00:00N 31°09' E 122°34'1 1.4
2018-May-16 23:23N 31°09' E 122°35'0 0.2
2018-May-16 20:43N 31°10' E 122°35'0 0.0
2018-May-16 20:25N 31°10' E 122°35'0 0.0
2018-May-16 19:52N 31°10' E 122°35'0 0.1
2018-May-16 19:28N 31°10' E 122°35'0 0.1
2018-May-16 18:58N 31°10' E 122°35'0 0.1
2018-May-16 18:28N 31°10' E 122°35'0 0.1
2018-May-16 17:16N 31°10' E 122°35'0 0.1
2018-May-16 14:31N 31°10' E 122°35'0 0.0
2018-May-16 14:19N 31°10' E 122°35'0 0.1
2018-May-16 13:49N 31°10' E 122°35'0 0.1
2018-May-16 12:07N 31°10' E 122°35'0 0.2
2018-May-16 11:55N 31°10' E 122°35'0 0.3
2018-May-16 11:25N 31°10' E 122°35'0 0.1
2018-May-16 10:55N 31°10' E 122°35'0 0.1
2018-May-16 10:07N 31°10' E 122°35'0 0.1
2018-May-16 09:55N 31°10' E 122°35'0 0.0
2018-May-16 09:25N 31°10' E 122°35'0 0.1
2018-May-16 08:58N 31°10' E 122°35'0 0.0
2018-May-16 08:28N 31°10' E 122°35'0 0.1
2018-May-16 07:55N 31°10' E 122°35'0 0.0
2018-May-16 07:19N 31°10' E 122°35'0 0.0
2018-May-16 06:55N 31°10' E 122°35'0 0.1
2018-May-16 06:28N 31°10' E 122°35'0 0.1
2018-May-16 05:58N 31°10' E 122°35'0 0.1
2018-May-16 05:25N 31°10' E 122°35'0 0.1
2018-May-16 04:58N 31°10' E 122°35'0 0.0
2018-May-15 11:16N 31°10' E 122°35'0 0.0
2018-May-14 18:46N 31°10' E 122°35'0 0.1
2018-May-14 18:22N 31°10' E 122°35'0 0.1
2018-May-14 17:55N 31°10' E 122°35'0 0.0
2018-May-14 00:34N 31°10' E 122°35'0 0.1
2018-May-13 22:58N 31°10' E 122°35'0 0.2
2018-May-13 21:49N 31°10' E 122°35'0 0.3
2018-May-13 21:25N 31°10' E 122°35'0 0.1
2018-May-13 20:28N 31°10' E 122°35'0 0.0
2018-May-13 19:49N 31°10' E 122°35'0 0.1
2018-May-13 19:28N 31°10' E 122°35'0 0.1
2018-May-13 18:58N 31°10' E 122°35'0 0.0
2018-May-13 17:58N 31°10' E 122°35'0 0.1
2018-May-13 17:25N 31°10' E 122°35'0 0.0
2018-May-13 16:58N 31°10' E 122°35'0 0.1
2018-May-13 16:22N 31°10' E 122°35'0 0.1
2018-May-13 15:52N 31°10' E 122°35'0 0.1
2018-May-13 15:25N 31°10' E 122°35'0 0.1
2018-May-13 14:55N 31°10' E 122°35'0 0.0
2018-May-13 14:28N 31°10' E 122°35'0 0.1
2018-May-13 13:25N 31°10' E 122°35'0 0.1
2018-May-13 12:58N 31°10' E 122°35'0 0.1
2018-May-13 12:25N 31°10' E 122°35'0 0.0
2018-May-13 11:55N 31°10' E 122°35'0 0.1
2018-May-13 11:10N 31°10' E 122°35'0 0.1
2018-May-13 10:58N 31°10' E 122°35'0 0.1
2018-May-13 10:13N 31°10' E 122°35'0 0.1
2018-May-13 09:58N 31°10' E 122°35'0 0.1
2018-May-13 09:28N 31°10' E 122°35'0 0.2
2018-May-13 08:46N 31°10' E 122°35'0 0.1
2018-May-13 05:07N 31°10' E 122°35'0 0.0
2018-May-13 04:58N 31°10' E 122°35'0 0.1
2018-May-13 04:28N 31°10' E 122°35'0 0.1
2018-May-13 03:58N 31°10' E 122°35'0 0.1
2018-May-13 03:22N 31°10' E 122°35'0 0.1
2018-May-13 01:16N 31°10' E 122°35'0 0.1
2018-May-12 22:43N 31°10' E 122°35'0 0.1
2018-May-12 22:22N 31°10' E 122°35'0 0.1
2018-May-12 16:19N 31°10' E 122°35'0 0.1
2018-May-12 15:13N 31°10' E 122°35'0 0.0
2018-May-11 08:22N 31°10' E 122°35'0 0.1
2018-May-11 05:07N 31°10' E 122°35'0 0.1
2018-May-11 02:13N 31°10' E 122°35'  

Dump ship's entire track history